Friendship, New York
Current Conditions -  °F | °C
As of 7:13 AM on Monday 26 Jan 2015 (Local Time) from KELZ Reporting Station
Light Snow Light Snow  
Wind Chill: -3°   Ceiling: 2200
Heat Index:   Visibility: 3mi
Dew Point:   Wind: 8mph
Humidity: 80%   Direction: 80°E
Pressure: 29.79"   Gusts: NA
Location:  42.21°N, 78.14°W
Report Text: KELZ 261213Z AUTO 08007KT 3SM -SN BKN022 OVC032 M13/M16 A2979 RMK AO2 P0000 T11281156
Loading
Personal Weather Stations






























Interactive Weather Map New forecast layout! Learn more

10-Day Weather Forecast

Advertisements
Track Severe Weather on mobile